KA7IKB-2 Weather Reports


Display with metric or nautical units.
time (UTC)temp
F
wind
direction
speed
MPH
gust
MPH
rain 1hr
in
rain 24hr
in
rain mn
in
humidity
%
barometer
mb
20240521211144 52 145 2.0 7.0 0.07 0.09 0.09 89 1019.7
20240521210635 53 131 1.0 8.0 0.07 0.08 0.08 90 1019.7
20240521210132 53 131 1.0 8.0 0.07 0.08 0.08 90 1019.7
20240521205627 53 202 1.0 6.0 0.06 0.07 0.07 89 1019.8
20240521205118 53 185 1.0 7.0 0.05 0.06 0.07 89 1019.9
20240521204615 53 185 1.0 7.0 0.05 0.06 0.06 89 1020.0
20240521204108 53 129 1.0 4.0 0.04 0.05 0.05 89 1020.1
20240521203603 53 130 1.0 4.0 0.03 0.04 0.04 89 1020.3
20240521203056 53 129 1.0 4.0 0.04 0.04 0.04 88 1020.3
20240521202550 53 129 1.0 4.0 0.03 0.03 0.03 88 1020.5
20240521202044 53 129 1.0 9.0 0.02 0.02 0.02 89 1020.5
20240521201538 53 131 2.0 9.0 0.02 0.02 0.02 86 1020.6
20240521201030 53 185 2.0 8.0 0.02 0.02 0.02 85 1020.6
20240521200524 53 128 1.0 8.0 0.01 0.01 0.01 87 1020.7
20240521200018 53 241 0.0 5.0 0.01 0.01 0.01 86 1020.7
20240521195515 53 252 1.0 4.0 0.01 0.01 0.01 85 1020.7
20240521195009 53 252 1.0 4.0 0.01 0.01 0.01 82 1020.8
20240521194735 54 220 0.0 4.0 0.01 0.01 0.01 84 1020.8
20240521193958 54 185 0.0 4.0 0.01 0.01 0.01 85 1020.8
20240521193451 53 251 1.0 4.0 0.01 0.01 0.01 85 1020.8
20240521192945 53 247 1.0 3.0 0.00 0.00 0.00 83 1020.8
20240521192440 53 125 1.0 3.0 0.00 0.00 0.00 82 1020.8
20240521191930 54 125 1.0 5.0 0.00 0.00 0.00 84 1020.9
20240521191426 53 124 1.0 5.0 0.00 0.00 0.00 81 1020.9
20240521190921 53 239 1.0 4.0 0.00 0.00 0.00 80 1021.0
20240521190415 54 127 1.0 7.0 0.00 0.00 0.00 81 1021.0
20240521185906 54 127 2.0 7.0 0.00 0.00 0.00 80 1021.1
20240521185402 54 212 2.0 5.0 0.00 0.00 0.00 79 1021.1
20240521184857 54 124 1.0 4.0 0.00 0.00 0.00 77 1021.1
20240521184351 54 125 1.0 5.0 0.00 0.00 0.00 78 1021.1
20240521183845 54 124 2.0 5.0 0.00 0.00 0.00 76 1021.1
20240521183339 53 120 1.0 4.0 0.00 0.00 0.00 77 1021.2
20240521182832 53 185 1.0 4.0 0.00 0.00 0.00 77 1021.2
20240521182327 53 238 1.0 4.0 0.00 0.00 0.00 75 1021.3
20240521181818 53 241 1.0 3.0 0.00 0.00 0.00 77 1021.3
20240521181315 53 240 1.0 3.0 0.00 0.00 0.00 78 1021.3
20240521180808 53 240 1.0 3.0 0.00 0.00 0.00 77 1021.3
20240521180302 53 240 1.0 3.0 0.00 0.00 0.00 78 1021.4
20240521175757 53 245 1.0 4.0 0.00 0.00 0.00 77 1021.4
20240521175251 53 245 1.0 4.0 0.00 0.00 0.00 75 1021.3
20240521174745 53 245 1.0 4.0 0.00 0.00 0.00 75 1021.5
20240521174238 53 245 1.0 4.0 0.00 0.00 0.00 74 1021.6
20240521173733 53 274 1.0 4.0 0.00 0.00 0.00 74 1021.5
20240521173227 53 248 0.0 4.0 0.00 0.00 0.00 74 1021.5
20240521172721 53 254 1.0 4.0 0.00 0.00 0.00 75 1021.6
20240521172215 53 253 1.0 4.0 0.00 0.00 0.00 74 1021.6
20240521171433 52 253 1.0 4.0 0.00 0.00 0.00 76 1021.7
20240521170656 52 254 1.0 4.0 0.00 0.00 0.00 75 1021.7
20240521170422 52 243 1.0 4.0 0.00 0.00 0.00 74 1021.7
20240521165645 52 130 1.0 4.0 0.00 0.00 0.00 74 1021.7
20240521165139 52 129 1.0 4.0 0.00 0.00 0.00 74 1021.7
20240521164127 53 244 1.0 5.0 0.00 0.00 0.00 73 1021.7
20240521163622 53 214 1.0 5.0 0.00 0.00 0.00 74 1021.6
20240521163115 52 240 1.0 5.0 0.00 0.00 0.00 74 1021.6
20240521162606 52 137 0.0 5.0 0.00 0.00 0.00 75 1021.7
20240521162105 52 241 0.0 3.0 0.00 0.00 0.00 76 1021.9
20240521161554 52 241 1.0 4.0 0.00 0.00 0.00 75 1022.0
20240521161321 52 241 1.0 4.0 0.00 0.00 0.00 74 1022.1
20240521160816 52 180 1.0 4.0 0.00 0.00 0.00 74 1022.4
20240521160311 52 199 0.0 4.0 0.00 0.00 0.00 73 1022.2
20240521155532 52 192 0.0 2.0 0.00 0.00 0.00 76 1022.0
20240521155030 51 192 1.0 3.0 0.00 0.00 0.00 76 1022.0
20240521154517 51 207 1.0 4.0 0.00 0.00 0.00 75 1022.0
20240521154011 51 118 0.0 4.0 0.00 0.00 0.00 76 1022.0
20240521153501 51 118 0.0 0.0 0.00 0.00 0.00 80 1022.1
20240521153230 50 118 0.0 1.0 0.00 0.00 0.00 80 1022.1
20240521152453 50 118 0.0 1.0 0.00 0.00 0.00 81 1022.1
20240521151947 50 118 0.0 1.0 0.00 0.00 0.00 80 1022.2
20240521151441 50 118 0.0 0.0 0.00 0.00 0.00 80 1022.1
20240521150934 50 118 0.0 0.0 0.00 0.00 0.00 80 1022.2
20240521150700 50 118 0.0 0.0 0.00 0.00 0.00 80 1022.3
20240521145922 50 118 0.0 1.0 0.00 0.00 0.00 81 1022.2
20240521145413 50 118 0.0 1.0 0.00 0.00 0.00 81 1022.2
20240521144910 50 118 0.0 0.0 0.00 0.00 0.00 81 1022.2
20240521144402 50 118 0.0 0.0 0.00 0.00 0.00 81 1022.3
20240521143859 50 118 0.0 0.0 0.00 0.00 0.00 82 1022.4
20240521143621 50 118 0.0 0.0 0.00 0.00 0.00 83 1022.5
20240521142846 50 118 0.0 0.0 0.00 0.00 0.00 81 1022.5
20240521142611 49 118 0.0 3.0 0.00 0.00 0.00 81 1022.5
20240521141835 49 118 0.0 3.0 0.00 0.00 0.00 80 1022.5
20240521141559 49 52 0.0 3.0 0.00 0.00 0.00 81 1022.6
20240521141053 48 52 0.0 2.0 0.00 0.00 0.00 83 1022.5
20240521140316 47 52 0.0 2.0 0.00 0.00 0.00 84 1022.6
20240521135810 47 52 0.0 1.0 0.00 0.00 0.00 84 1022.7
20240521135537 47 52 0.0 1.0 0.00 0.00 0.00 86 1022.6
20240521135029 47 52 0.0 0.0 0.00 0.00 0.00 85 1022.6
20240521134256 46 52 0.0 0.0 0.00 0.00 0.00 86 1022.6
20240521133746 46 52 0.0 0.0 0.00 0.00 0.00 85 1022.7
20240521133241 46 52 0.0 0.0 0.00 0.00 0.00 85 1022.7
20240521132734 46 52 0.0 0.0 0.00 0.00 0.00 86 1022.7
20240521132459 46 52 0.0 0.0 0.00 0.00 0.00 85 1022.8
20240521131722 46 52 0.0 0.0 0.00 0.00 0.00 85 1022.8
20240521131216 47 52 0.0 0.0 0.00 0.00 0.00 84 1022.7
20240521130710 47 52 0.0 0.0 0.00 0.00 0.00 83 1022.7
20240521130435 47 52 0.0 0.0 0.00 0.00 0.00 83 1022.6
20240521125658 46 52 0.0 0.0 0.00 0.00 0.00 83 1022.6
20240521125152 47 52 0.0 0.0 0.00 0.00 0.00 84 1022.8
20240521124647 46 52 0.0 0.0 0.00 0.00 0.00 84 1022.7
20240521124141 46 52 0.0 1.0 0.00 0.00 0.00 84 1022.8
20240521123635 46 52 0.0 1.0 0.00 0.00 0.00 84 1022.8
20240521123129 46 52 0.0 1.0 0.00 0.00 0.00 84 1022.9
20240521122853 46 52 0.0 1.0 0.00 0.00 0.00 85 1022.9
20240521122114 46 52 0.0 2.0 0.00 0.00 0.00 85 1022.9
20240521121610 46 52 0.0 2.0 0.00 0.00 0.00 86 1022.9
20240521121105 46 18 0.0 0.0 0.00 0.00 0.00 86 1022.9
20240521120556 46 18 0.0 0.0 0.00 0.00 0.00 86 1022.9
20240521120052 45 18 0.0 0.0 0.00 0.00 0.00 87 1022.9
20240521115818 45 18 0.0 0.0 0.00 0.00 0.00 86 1022.9
20240521115041 45 18 0.0 0.0 0.00 0.00 0.00 87 1023.1
20240521114534 45 18 0.0 0.0 0.00 0.00 0.00 87 1023.0
20240521114029 45 17 0.0 0.0 0.00 0.00 0.00 87 1023.0
20240521113523 45 17 0.0 0.0 0.00 0.00 0.00 87 1023.0
20240521112510 45 17 0.0 0.0 0.00 0.00 0.00 87 1023.2
20240521112004 45 17 0.0 0.0 0.00 0.00 0.00 87 1023.2
20240521111459 45 17 0.0 0.0 0.00 0.00 0.00 87 1023.2
20240521111223 44 17 0.0 0.0 0.00 0.00 0.00 86 1023.2
20240521110446 44 17 0.0 0.0 0.00 0.00 0.00 86 1023.3
20240521105941 44 17 0.0 0.0 0.00 0.00 0.00 86 1023.3
20240521105435 44 17 0.0 0.0 0.00 0.00 0.00 86 1023.4
20240521105200 44 17 0.0 0.0 0.00 0.00 0.00 86 1023.3
20240521104651 44 17 0.0 0.0 0.00 0.00 0.00 86 1023.2
20240521103914 44 17 0.0 0.0 0.00 0.00 0.00 86 1023.2
20240521103410 44 17 0.0 0.0 0.00 0.00 0.00 86 1023.2
20240521102905 45 17 0.0 0.0 0.00 0.00 0.00 86 1023.2
20240521102358 45 17 0.0 0.0 0.00 0.00 0.00 86 1023.2
20240521101853 45 17 0.0 0.0 0.00 0.00 0.00 86 1023.3
20240521101343 45 17 0.0 0.0 0.00 0.00 0.00 86 1023.3
20240521100841 45 17 0.0 0.0 0.00 0.00 0.00 85 1023.2
20240521100335 45 17 0.0 0.0 0.00 0.00 0.00 86 1023.3
20240521095829 45 17 0.0 0.0 0.00 0.00 0.00 85 1023.3
20240521095323 45 17 0.0 0.0 0.00 0.00 0.00 86 1023.3
20240521095048 45 17 0.0 0.0 0.00 0.00 0.00 86 1023.3
20240521094539 45 17 0.0 0.0 0.00 0.00 0.00 86 1023.3
20240521093802 45 17 0.0 0.0 0.00 0.00 0.00 86 1023.3
20240521093258 45 18 0.0 0.0 0.00 0.00 0.00 86 1023.4
20240521092750 45 18 0.0 0.0 0.00 0.00 0.00 85 1023.4
20240521092246 45 18 0.0 0.0 0.00 0.00 0.00 85 1023.4
20240521092011 45 18 0.0 0.0 0.00 0.00 0.00 85 1023.4
20240521091233 45 17 0.0 0.0 0.00 0.00 0.00 84 1023.4
20240521091001 45 18 0.0 0.0 0.00 0.00 0.00 85 1023.5
20240521090219 45 17 0.0 0.0 0.00 0.00 0.00 84 1023.5
20240521085947 46 17 0.0 0.0 0.00 0.00 0.00 84 1023.5
20240521085439 46 18 0.0 0.0 0.00 0.00 0.00 84 1023.5
20240521084705 46 18 0.0 0.0 0.00 0.00 0.00 83 1023.6
20240521084159 46 18 0.0 0.0 0.00 0.00 0.00 83 1023.5
20240521083653 46 17 0.0 0.0 0.00 0.00 0.00 83 1023.6
20240521083147 46 17 0.0 0.0 0.00 0.00 0.00 83 1023.6
20240521082640 46 18 0.0 0.0 0.00 0.00 0.00 83 1023.5
20240521082135 46 18 0.0 0.0 0.00 0.00 0.00 82 1023.6
20240521081628 46 18 0.0 1.0 0.00 0.00 0.00 82 1023.5
20240521081124 47 18 0.0 1.0 0.00 0.00 0.00 82 1023.5
20240521080613 47 18 0.0 0.0 0.00 0.00 0.00 82 1023.5
20240521080111 47 18 0.0 0.0 0.00 0.00 0.00 82 1023.5
20240521075601 47 17 0.0 1.0 0.00 0.00 0.00 81 1023.4
20240521075059 47 18 0.0 1.0 0.00 0.00 0.00 81 1023.4
20240521074553 47 322 0.0 0.0 0.00 0.00 0.00 81 1023.5
20240521074047 47 322 0.0 1.0 0.00 0.00 0.00 80 1023.5
20240521073537 48 324 0.0 1.0 0.00 0.00 0.00 80 1023.5
20240521073034 48 320 0.0 0.0 0.00 0.00 0.00 79 1023.5
20240521072759 48 320 0.0 0.0 0.00 0.00 0.00 79 1023.6
20240521072019 48 320 0.0 0.0 0.00 0.00 0.00 79 1023.6
20240521071516 49 320 0.0 0.0 0.00 0.00 0.00 79 1023.6
20240521071012 49 320 0.0 2.0 0.00 0.00 0.00 78 1023.7
20240521070508 49 320 0.0 5.0 0.00 0.00 0.00 78 1023.6
20240521065959 49 48 0.0 5.0 0.00 0.00 0.00 78 1023.6
20240521065452 49 347 0.0 1.0 0.00 0.00 0.00 78 1023.6
20240521064946 49 347 0.0 1.0 0.00 0.00 0.00 77 1023.6
20240521064440 50 347 0.0 0.0 0.00 0.00 0.00 76 1023.6
20240521064207 50 347 0.0 0.0 0.00 0.00 0.00 75 1023.6
20240521063426 50 347 0.0 0.0 0.00 0.00 0.00 75 1023.5
20240521062922 50 347 0.0 0.0 0.00 0.00 0.00 74 1023.5
20240521062413 51 347 0.0 0.0 0.00 0.00 0.00 74 1023.5
20240521061907 51 347 0.0 0.0 0.00 0.00 0.00 74 1023.5
20240521061405 51 347 0.0 1.0 0.00 0.00 0.00 74 1023.5
20240521060858 51 347 0.0 1.0 0.00 0.00 0.00 74 1023.5
20240521060353 51 347 0.0 3.0 0.00 0.00 0.00 74 1023.5
20240521055846 51 347 0.0 3.0 0.00 0.00 0.00 74 1023.4
20240521055338 51 347 0.0 0.0 0.00 0.00 0.00 73 1023.4
20240521054831 52 347 0.0 0.0 0.00 0.00 0.00 73 1023.4
20240521054328 52 347 0.0 1.0 0.00 0.00 0.00 73 1023.3
20240521053822 52 347 0.0 1.0 0.00 0.00 0.00 72 1023.3
20240521053316 52 343 0.0 0.0 0.00 0.00 0.00 72 1023.3
20240521052810 53 343 0.0 0.0 0.00 0.00 0.00 71 1023.2
20240521052304 53 343 0.0 0.0 0.00 0.00 0.00 71 1023.2
20240521051802 53 343 0.0 0.0 0.00 0.00 0.00 70 1023.2
20240521051246 53 343 0.0 0.0 0.00 0.00 0.00 70 1023.2
20240521050743 54 343 0.0 0.0 0.00 0.00 0.00 70 1023.2
20240521050236 54 343 0.0 0.0 0.00 0.00 0.00 69 1023.3
20240521045728 54 343 0.0 0.0 0.00 0.00 0.00 68 1023.2
20240521045224 55 343 0.0 0.0 0.00 0.00 0.00 68 1023.1
20240521044950 55 343 0.0 0.0 0.00 0.00 0.00 67 1023.1
20240521044210 55 343 0.0 0.0 0.00 0.00 0.00 67 1023.1
20240521043938 55 343 0.0 0.0 0.00 0.00 0.00 67 1023.1
20240521043200 56 343 0.0 0.0 0.00 0.00 0.00 66 1023.1
20240521042654 56 343 0.0 1.0 0.00 0.00 0.00 66 1023.1
20240521042148 56 343 0.0 1.0 0.00 0.00 0.00 65 1023.0
20240521041643 56 343 0.0 0.0 0.00 0.00 0.00 64 1022.9
20240521041141 56 343 0.0 0.0 0.00 0.00 0.00 64 1022.9
20240521040641 57 343 0.0 0.0 0.00 0.00 0.00 64 1022.8
20240521040138 57 343 0.0 1.0 0.00 0.00 0.00 63 1022.8
20240521035640 57 344 0.0 4.0 0.00 0.00 0.00 62 1022.7
20240521035138 57 345 0.0 4.0 0.00 0.00 0.00 62 1022.7
20240521034641 58 225 0.0 1.0 0.00 0.00 0.00 61 1022.7
20240521034141 58 225 0.0 0.0 0.00 0.00 0.00 60 1022.6
20240521033641 58 225 0.0 1.0 0.00 0.00 0.00 59 1022.6
20240521033136 58 225 0.0 1.0 0.00 0.00 0.00 60 1022.5
20240521032634 59 225 0.0 3.0 0.00 0.00 0.00 59 1022.5
20240521032134 59 225 0.0 3.0 0.00 0.00 0.00 60 1022.5
20240521031630 59 224 0.0 1.0 0.00 0.00 0.00 60 1022.5
20240521031128 59 224 0.0 1.0 0.00 0.00 0.00 59 1022.5
20240521030628 59 224 0.0 0.0 0.00 0.00 0.00 59 1022.5
20240521030130 59 224 0.0 1.0 0.00 0.00 0.00 58 1022.5
20240521025628 60 224 0.0 1.0 0.00 0.00 0.00 58 1022.4
20240521025128 60 224 0.0 0.0 0.00 0.00 0.00 59 1022.3
20240521024628 60 224 0.0 1.0 0.00 0.00 0.00 58 1022.3
20240521024125 61 224 0.0 3.0 0.00 0.00 0.00 57 1022.2
20240521023621 61 224 0.0 3.0 0.00 0.00 0.00 57 1022.2
20240521022605 62 224 0.0 1.0 0.00 0.00 0.00 56 1022.2
20240521022102 62 226 0.0 1.0 0.00 0.00 0.00 55 1022.3
20240521021554 63 226 0.0 1.0 0.00 0.00 0.00 56 1022.2
20240521021319 63 226 0.0 2.0 0.00 0.00 0.00 55 1022.2
20240521020545 64 226 0.0 2.0 0.00 0.00 0.00 52 1022.2
20240521020038 64 216 0.0 4.0 0.00 0.00 0.00 56 1022.2
20240521015532 64 216 0.0 4.0 0.00 0.00 0.00 54 1022.2
20240521015026 64 126 0.0 0.0 0.00 0.00 0.00 55 1022.2
20240521014518 64 126 1.0 5.0 0.00 0.00 0.00 53 1022.2
20240521014015 64 126 1.0 5.0 0.00 0.00 0.00 50 1022.2
20240521013509 64 185 0.0 3.0 0.00 0.00 0.00 50 1022.2
20240521013003 64 185 0.0 3.0 0.00 0.00 0.00 50 1022.2
20240521012454 64 185 1.0 5.0 0.00 0.00 0.00 50 1022.2
20240521011951 64 185 1.0 5.0 0.00 0.00 0.00 50 1022.3
20240521011713 64 237 0.0 4.0 0.00 0.00 0.00 50 1022.3
20240521010939 65 116 1.0 4.0 0.00 0.00 0.00 52 1022.4
20240521010432 65 116 1.0 4.0 0.00 0.00 0.00 49 1022.4
20240521010157 65 110 1.0 4.0 0.00 0.00 0.00 50 1022.5
20240521005420 65 113 0.0 4.0 0.00 0.00 0.00 49 1022.4
20240521004916 65 94 0.0 2.0 0.00 0.00 0.00 50 1022.5
20240521004406 65 94 1.0 4.0 0.00 0.00 0.00 50 1022.6
20240521003903 64 190 1.0 4.0 0.00 0.00 0.00 49 1022.6
20240521003354 64 77 0.0 2.0 0.00 0.00 0.00 51 1022.7
20240521002851 64 49 0.0 1.0 0.00 0.00 0.00 50 1022.8
20240521002110 65 49 0.0 1.0 0.00 0.00 0.00 51 1022.8
20240521001330 65 49 0.0 1.0 0.00 0.00 0.00 54 1022.9
20240521001100 65 49 0.0 0.0 0.00 0.00 0.00 51 1022.9
20240521000321 66 49 0.0 2.0 0.00 0.00 0.00 52 1023.0
20240520235812 67 49 0.0 2.0 0.00 0.00 0.00 51 1023.0
20240520235308 67 49 0.0 3.0 0.00 0.00 0.00 50 1023.0
20240520234256 67 52 1.0 4.0 0.00 0.00 0.00 48 1023.1
20240520234022 67 43 1.0 4.0 0.00 0.00 0.00 46 1023.1
20240520233245 66 237 1.0 6.0 0.00 0.00 0.00 48 1023.2
20240520232738 66 359 1.0 6.0 0.00 0.00 0.00 46 1023.1
20240520232230 66 34 0.0 5.0 0.00 0.00 0.00 47 1023.1
20240520231726 65 40 0.0 5.0 0.00 0.00 0.00 51 1023.2
20240520231220 65 42 2.0 5.0 0.00 0.00 0.00 48 1023.3
20240520230712 66 59 2.0 5.0 0.00 0.00 0.00 46 1023.3
20240520230206 66 29 1.0 5.0 0.00 0.00 0.00 48 1023.2
20240520225702 65 247 0.0 3.0 0.00 0.00 0.00 49 1023.3
20240520225157 65 247 0.0 2.0 0.00 0.00 0.00 48 1023.4
20240520224651 65 247 0.0 2.0 0.00 0.00 0.00 48 1023.5
20240520224142 65 247 1.0 4.0 0.00 0.00 0.00 50 1023.5
20240520223635 66 247 1.0 5.0 0.00 0.00 0.00 47 1023.7
20240520223132 66 247 1.0 5.0 0.00 0.00 0.00 48 1023.7
20240520222624 65 15 1.0 3.0 0.00 0.00 0.00 51 1023.7
20240520222120 65 243 1.0 3.0 0.00 0.00 0.00 49 1023.8
20240520221612 65 285 1.0 4.0 0.00 0.00 0.00 49 1023.8
20240520221109 66 64 1.0 7.0 0.00 0.00 0.00 47 1023.9
20240520220603 66 5 1.0 7.0 0.00 0.00 0.00 49 1023.9
20240520220056 66 245 0.0 3.0 0.00 0.00 0.00 48 1024.0
20240520215550 65 37 1.0 5.0 0.00 0.00 0.00 48 1024.0
20240520215042 65 35 2.0 6.0 0.00 0.00 0.00 51 1024.1
20240520214539 66 101 1.0 6.0 0.00 0.00 0.00 46 1024.1
20240520214030 66 106 1.0 4.0 0.00 0.00 0.00 46 1024.1
20240520213525 66 191 1.0 5.0 0.00 0.00 0.00 47 1024.2
20240520213020 66 52 2.0 6.0 0.00 0.00 0.00 49 1024.3
20240520212515 65 2 1.0 6.0 0.00 0.00 0.00 52 1024.3
20240520212006 65 247 1.0 4.0 0.00 0.00 0.00 50 1024.3
20240520211735 64 322 1.0 5.0 0.00 0.00 0.00 54 1024.4